createdAt,value
2023-05-07T00:00:41.257Z,15.93
2023-05-07T00:03:07.943Z,15.95
2023-05-07T00:05:34.528Z,15.97
2023-05-07T00:08:00.883Z,16.01
2023-05-07T00:10:27.423Z,15.97
2023-05-07T00:12:53.813Z,15.93
2023-05-07T00:15:20.627Z,16.00
2023-05-07T00:17:46.989Z,15.89
2023-05-07T00:20:13.663Z,15.88
2023-05-07T00:22:40.157Z,15.90
2023-05-07T00:25:06.753Z,15.95
2023-05-07T00:27:33.320Z,15.75
2023-05-07T00:29:59.641Z,15.72
2023-05-07T00:32:26.044Z,15.83
2023-05-07T00:34:52.433Z,15.82
2023-05-07T00:37:18.778Z,15.83
2023-05-07T00:39:45.160Z,15.79
2023-05-07T00:42:11.544Z,15.81
2023-05-07T00:44:37.934Z,15.81
2023-05-07T00:47:05.895Z,15.70
2023-05-07T00:49:42.250Z,15.73
2023-05-07T00:52:16.663Z,15.60
2023-05-07T00:54:43.671Z,15.62
2023-05-07T00:57:12.191Z,15.69
2023-05-07T00:59:39.187Z,15.69
2023-05-07T01:02:05.596Z,15.68
2023-05-07T01:04:32.082Z,15.73
2023-05-07T01:07:00.702Z,15.78
2023-05-07T01:09:28.873Z,15.62
2023-05-07T01:11:58.201Z,15.73
2023-05-07T01:14:25.495Z,15.59
2023-05-07T01:16:54.844Z,15.54
2023-05-07T01:19:23.657Z,15.63
2023-05-07T01:21:52.050Z,15.63
2023-05-07T01:24:19.964Z,15.62
2023-05-07T01:26:46.561Z,15.59
2023-05-07T01:29:15.612Z,15.46
2023-05-07T01:31:43.813Z,15.62
2023-05-07T01:34:13.342Z,15.55
2023-05-07T01:36:40.867Z,15.55
2023-05-07T01:39:07.718Z,15.57
2023-05-07T01:41:34.649Z,15.52
2023-05-07T01:44:02.318Z,15.48
2023-05-07T01:46:29.529Z,15.47
2023-05-07T01:48:56.077Z,15.42
2023-05-07T01:51:23.275Z,15.53
2023-05-07T01:53:51.720Z,15.53
2023-05-07T01:56:20.030Z,15.47
2023-05-07T01:58:47.326Z,15.43
2023-05-07T02:01:15.282Z,15.47
2023-05-07T02:03:43.175Z,15.57
2023-05-07T02:06:17.215Z,15.50
2023-05-07T02:08:43.799Z,15.51
2023-05-07T02:11:11.524Z,15.55
2023-05-07T02:13:38.020Z,15.56
2023-05-07T02:16:05.107Z,15.58
2023-05-07T02:18:31.605Z,15.55
2023-05-07T02:20:58.403Z,15.45
2023-05-07T02:23:24.869Z,15.42
2023-05-07T02:25:52.029Z,15.49
2023-05-07T02:28:18.451Z,15.50
2023-05-07T02:31:05.181Z,15.35
2023-05-07T02:33:32.322Z,15.32
2023-05-07T02:36:07.013Z,15.22
2023-05-07T02:38:35.223Z,15.37
2023-05-07T02:41:01.737Z,15.37
2023-05-07T02:43:28.315Z,15.37
2023-05-07T02:46:05.620Z,15.30
2023-05-07T02:48:34.307Z,15.22
2023-05-07T02:51:01.411Z,15.26
2023-05-07T02:53:28.144Z,15.29
2023-05-07T02:55:55.391Z,15.27
2023-05-07T02:58:21.740Z,15.33
2023-05-07T03:00:48.186Z,15.23
2023-05-07T03:03:23.369Z,15.25
2023-05-07T03:05:50.080Z,15.15
2023-05-07T03:08:16.442Z,15.22
2023-05-07T03:10:42.805Z,15.16
2023-05-07T03:13:09.412Z,15.24
2023-05-07T03:15:35.953Z,15.12
2023-05-07T03:18:02.468Z,15.17
2023-05-07T03:20:28.942Z,15.17
2023-05-07T03:22:57.042Z,15.11
2023-05-07T03:25:23.427Z,15.14
2023-05-07T03:27:50.012Z,14.97
2023-05-07T03:30:20.117Z,14.99
2023-05-07T03:32:46.645Z,15.07
2023-05-07T03:35:13.212Z,15.17
2023-05-07T03:37:41.079Z,14.99
2023-05-07T03:40:10.469Z,14.96
2023-05-07T03:42:43.747Z,15.04
2023-05-07T03:45:11.152Z,15.01
2023-05-07T03:47:40.663Z,15.13
2023-05-07T03:50:09.035Z,15.15
2023-05-07T03:52:35.645Z,15.18
2023-05-07T03:55:03.318Z,15.13
2023-05-07T03:57:32.166Z,15.04
2023-05-07T03:59:59.395Z,15.05
2023-05-07T04:02:26.292Z,15.12
2023-05-07T04:04:52.946Z,15.05
2023-05-07T04:07:19.413Z,14.93
2023-05-07T04:09:49.654Z,15.00
2023-05-07T04:12:16.265Z,14.99
2023-05-07T04:14:45.654Z,14.93
2023-05-07T04:17:12.610Z,14.92
2023-05-07T04:19:39.011Z,15.01
2023-05-07T04:22:05.354Z,14.88
2023-05-07T04:24:34.848Z,15.00
2023-05-07T04:27:02.579Z,15.05
2023-05-07T04:29:29.590Z,14.95
2023-05-07T04:31:57.289Z,14.91
2023-05-07T04:34:23.702Z,14.81
2023-05-07T04:36:50.689Z,14.89
2023-05-07T04:39:17.085Z,14.83
2023-05-07T04:41:46.258Z,14.93
2023-05-07T04:44:13.183Z,14.90
2023-05-07T04:46:39.595Z,14.82
2023-05-07T04:49:06.637Z,14.85
2023-05-07T04:51:33.565Z,14.80
2023-05-07T04:54:00.254Z,14.90
2023-05-07T04:56:30.696Z,14.96
2023-05-07T04:58:57.799Z,14.89
2023-05-07T05:01:24.644Z,14.98
2023-05-07T05:03:51.128Z,15.05
2023-05-07T05:06:19.070Z,14.91
2023-05-07T05:08:45.368Z,14.81
2023-05-07T05:11:12.392Z,14.91
2023-05-07T05:13:39.205Z,14.92
2023-05-07T05:16:11.866Z,14.82
2023-05-07T05:18:39.056Z,14.77
2023-05-07T05:21:05.971Z,14.78
2023-05-07T05:23:33.363Z,14.78
2023-05-07T05:25:59.929Z,14.77
2023-05-07T05:28:29.669Z,14.90
2023-05-07T05:30:56.562Z,14.91
2023-05-07T05:33:24.123Z,15.01
2023-05-07T05:35:50.875Z,15.08
2023-05-07T05:38:17.478Z,15.04
2023-05-07T05:40:44.286Z,15.09
2023-05-07T05:43:10.747Z,15.14
2023-05-07T05:45:38.174Z,15.17
2023-05-07T05:48:04.703Z,15.22
2023-05-07T05:50:31.494Z,15.17
2023-05-07T05:53:00.440Z,15.15
2023-05-07T05:55:28.392Z,15.10
2023-05-07T05:57:54.769Z,15.13
2023-05-07T06:00:23.422Z,15.10
2023-05-07T06:02:57.677Z,15.13
2023-05-07T06:05:25.400Z,15.25
2023-05-07T06:07:54.087Z,15.31
2023-05-07T06:10:21.078Z,15.35
2023-05-07T06:12:47.570Z,15.36
2023-05-07T06:15:14.266Z,15.38
2023-05-07T06:17:41.838Z,15.44
2023-05-07T06:20:10.034Z,15.40
2023-05-07T06:22:36.817Z,15.50
2023-05-07T06:25:03.918Z,15.46
2023-05-07T06:27:30.411Z,15.48
2023-05-07T06:29:57.365Z,15.44
2023-05-07T06:32:23.893Z,15.51
2023-05-07T06:34:52.042Z,15.76
2023-05-07T06:37:19.060Z,15.83
2023-05-07T06:40:00.031Z,15.86
2023-05-07T06:42:27.555Z,16.00
2023-05-07T06:44:58.453Z,16.14
2023-05-07T06:47:25.402Z,16.29
2023-05-07T06:49:54.473Z,16.41
2023-05-07T06:52:24.123Z,16.54
2023-05-07T06:54:51.350Z,16.63
2023-05-07T06:57:20.430Z,16.71
2023-05-07T06:59:46.787Z,16.79
2023-05-07T07:02:13.178Z,16.87
2023-05-07T07:04:41.009Z,16.88
2023-05-07T07:07:10.225Z,16.92
2023-05-07T07:09:36.897Z,16.93
2023-05-07T07:12:05.195Z,16.95
2023-05-07T07:14:31.821Z,16.95
2023-05-07T07:16:58.582Z,16.95
2023-05-07T07:19:27.201Z,16.88
2023-05-07T07:21:55.402Z,16.82
2023-05-07T07:24:22.270Z,16.87
2023-05-07T07:26:52.513Z,16.78
2023-05-07T07:29:20.682Z,16.77
2023-05-07T07:31:49.903Z,16.78
2023-05-07T07:34:17.749Z,16.84
2023-05-07T07:36:46.521Z,16.89
2023-05-07T07:39:16.854Z,16.92
2023-05-07T07:41:44.295Z,16.97
2023-05-07T07:44:16.068Z,17.02
2023-05-07T07:46:43.880Z,16.95
2023-05-07T07:49:10.408Z,16.98
2023-05-07T07:51:37.214Z,16.98
2023-05-07T07:54:04.023Z,17.06
2023-05-07T07:56:34.587Z,16.96
2023-05-07T07:59:02.226Z,17.04
2023-05-07T08:01:31.329Z,16.98
2023-05-07T08:04:01.416Z,16.99
2023-05-07T08:06:29.897Z,16.99
2023-05-07T08:08:56.383Z,16.97
2023-05-07T08:11:23.387Z,17.00
2023-05-07T08:13:51.257Z,16.99
2023-05-07T08:16:18.198Z,17.02
2023-05-07T08:18:44.650Z,17.06
2023-05-07T08:21:11.642Z,17.08
2023-05-07T08:23:38.306Z,17.15
2023-05-07T08:26:05.523Z,17.20
2023-05-07T08:28:32.486Z,17.31
2023-05-07T08:31:01.350Z,17.37
2023-05-07T08:33:31.941Z,17.62
2023-05-07T08:35:58.466Z,17.80
2023-05-07T08:38:25.280Z,17.88
2023-05-07T08:40:51.820Z,18.04
2023-05-07T08:43:20.508Z,18.15
2023-05-07T08:45:50.188Z,18.20
2023-05-07T08:48:18.711Z,18.13
2023-05-07T08:50:53.116Z,18.22
2023-05-07T08:53:21.515Z,18.29
2023-05-07T08:55:49.776Z,18.22
2023-05-07T08:58:16.410Z,18.26
2023-05-07T09:00:43.533Z,18.24
2023-05-07T09:03:13.397Z,18.21
2023-05-07T09:05:41.731Z,18.23
2023-05-07T09:08:08.996Z,18.29
2023-05-07T09:10:37.211Z,18.27
2023-05-07T09:13:05.398Z,18.22
2023-05-07T09:15:31.963Z,18.32
2023-05-07T09:18:02.381Z,18.22
2023-05-07T09:20:31.658Z,18.32
2023-05-07T09:22:58.502Z,18.42
2023-05-07T09:25:33.326Z,18.67
2023-05-07T09:28:08.054Z,18.98
2023-05-07T09:30:35.508Z,19.12
2023-05-07T09:33:05.075Z,19.30
2023-05-07T09:35:34.025Z,19.38
2023-05-07T09:38:05.778Z,19.32
2023-05-07T09:40:35.027Z,19.25
2023-05-07T09:43:14.034Z,19.32
2023-05-07T09:45:47.440Z,19.37
2023-05-07T09:48:19.249Z,19.34
2023-05-07T09:50:52.333Z,19.35
2023-05-07T09:53:23.554Z,19.36
2023-05-07T09:55:52.564Z,19.29
2023-05-07T09:58:21.646Z,19.29
2023-05-07T10:00:48.995Z,19.34
2023-05-07T10:03:16.147Z,19.38
2023-05-07T10:05:51.417Z,19.45
2023-05-07T10:08:20.825Z,19.48
2023-05-07T10:10:50.002Z,19.70
2023-05-07T10:13:21.212Z,19.67
2023-05-07T10:15:51.218Z,19.66
2023-05-07T10:18:23.382Z,19.59
2023-05-07T10:20:52.980Z,19.44
2023-05-07T10:23:24.231Z,19.47
2023-05-07T10:26:00.452Z,19.52
2023-05-07T10:28:31.600Z,19.86
2023-05-07T10:31:35.787Z,20.28
2023-05-07T10:34:09.597Z,20.67
2023-05-07T10:36:38.391Z,21.01
2023-05-07T10:39:06.947Z,21.31
2023-05-07T10:41:33.847Z,21.47
2023-05-07T10:44:02.983Z,21.61
2023-05-07T10:46:36.120Z,21.74
2023-05-07T10:49:24.525Z,21.62
2023-05-07T10:52:16.709Z,21.59
2023-05-07T10:55:22.121Z,21.47
2023-05-07T10:58:31.201Z,21.63
2023-05-07T11:01:08.557Z,21.71
2023-05-07T11:04:15.368Z,21.87
2023-05-07T11:07:37.403Z,21.94
2023-05-07T11:10:09.239Z,22.16
2023-05-07T11:12:45.412Z,22.37
2023-05-07T11:15:35.266Z,22.44
2023-05-07T11:18:04.824Z,22.46
2023-05-07T11:20:58.708Z,22.83
2023-05-07T11:23:58.082Z,22.76
2023-05-07T11:26:42.499Z,22.73
2023-05-07T11:29:21.821Z,22.63
2023-05-07T11:31:53.294Z,22.47
2023-05-07T11:34:25.545Z,22.50
2023-05-07T11:36:54.289Z,22.47
2023-05-07T11:39:36.949Z,22.45
2023-05-07T11:42:03.899Z,22.49
2023-05-07T11:44:46.925Z,22.47
2023-05-07T11:47:19.504Z,22.41
2023-05-07T11:49:50.465Z,22.30
2023-05-07T11:52:17.242Z,22.28
2023-05-07T11:54:56.826Z,22.32
2023-05-07T11:57:24.729Z,22.21
2023-05-07T11:59:59.137Z,22.30
2023-05-07T12:02:26.737Z,22.36
2023-05-07T12:04:54.289Z,22.37
2023-05-07T12:07:21.185Z,22.50
2023-05-07T12:09:48.439Z,22.74
2023-05-07T12:12:18.350Z,23.05
2023-05-07T12:14:46.140Z,23.13
2023-05-07T12:17:14.262Z,23.16
2023-05-07T12:19:43.518Z,23.37
2023-05-07T12:22:10.684Z,23.39
2023-05-07T12:24:50.651Z,23.25
2023-05-07T12:27:18.169Z,23.01
2023-05-07T12:29:47.700Z,22.81
2023-05-07T12:32:16.109Z,22.63
2023-05-07T12:34:45.488Z,22.54
2023-05-07T12:37:13.654Z,22.32
2023-05-07T12:39:48.664Z,22.26
2023-05-07T12:42:26.481Z,22.26
2023-05-07T12:44:53.198Z,22.68
2023-05-07T12:47:19.645Z,23.11
2023-05-07T12:49:47.053Z,23.59
2023-05-07T12:52:13.910Z,23.69
2023-05-07T12:54:40.344Z,23.62
2023-05-07T12:57:08.754Z,23.72
2023-05-07T12:59:42.372Z,23.76
2023-05-07T13:02:09.844Z,23.82
2023-05-07T13:04:38.006Z,23.94
2023-05-07T13:07:04.388Z,23.86
2023-05-07T13:09:32.167Z,23.86
2023-05-07T13:12:02.157Z,24.00
2023-05-07T13:14:28.501Z,24.03
2023-05-07T13:16:54.850Z,23.82
2023-05-07T13:19:21.535Z,23.65
2023-05-07T13:21:47.874Z,23.45
2023-05-07T13:24:14.184Z,23.35
2023-05-07T13:26:40.494Z,23.23
2023-05-07T13:29:06.778Z,23.17
2023-05-07T13:31:34.741Z,23.45
2023-05-07T13:34:01.128Z,23.67
2023-05-07T13:36:27.744Z,23.78
2023-05-07T13:38:54.047Z,23.66
2023-05-07T13:41:20.997Z,23.90
2023-05-07T13:43:47.306Z,23.95
2023-05-07T13:46:13.977Z,24.04
2023-05-07T13:48:40.579Z,24.05
2023-05-07T13:51:07.521Z,23.91
2023-05-07T13:53:33.830Z,23.68
2023-05-07T13:56:00.421Z,23.52
2023-05-07T13:58:26.692Z,23.38
2023-05-07T14:00:53.040Z,23.40
2023-05-07T14:03:20.630Z,23.52
2023-05-07T14:05:48.937Z,23.69
2023-05-07T14:08:18.484Z,23.57
2023-05-07T14:10:44.904Z,23.56
2023-05-07T14:13:11.621Z,23.44
2023-05-07T14:15:38.466Z,23.38
2023-05-07T14:18:04.994Z,23.36
2023-05-07T14:20:31.974Z,23.36
2023-05-07T14:22:58.357Z,23.34
2023-05-07T14:25:24.745Z,23.39
2023-05-07T14:27:51.989Z,23.27
2023-05-07T14:30:18.292Z,23.16
2023-05-07T14:32:44.706Z,23.14
2023-05-07T14:35:11.401Z,23.18
2023-05-07T14:37:37.956Z,23.13
2023-05-07T14:40:04.621Z,23.12
2023-05-07T14:42:31.263Z,23.02
2023-05-07T14:44:57.579Z,22.92
2023-05-07T14:47:23.920Z,22.80
2023-05-07T14:49:50.306Z,22.69
2023-05-07T14:52:16.640Z,22.64
2023-05-07T14:54:43.011Z,22.46
2023-05-07T14:57:10.938Z,22.46
2023-05-07T14:59:38.649Z,22.46
2023-05-07T15:02:07.365Z,22.44
2023-05-07T15:04:34.195Z,22.30
2023-05-07T15:07:01.060Z,22.18
2023-05-07T15:09:27.480Z,22.21
2023-05-07T15:11:53.774Z,22.19
2023-05-07T15:14:22.541Z,22.11
2023-05-07T15:16:50.144Z,22.04
2023-05-07T15:19:17.626Z,22.06
2023-05-07T15:21:43.961Z,22.03
2023-05-07T15:24:10.627Z,22.03
2023-05-07T15:26:37.010Z,22.00
2023-05-07T15:29:04.146Z,22.01
2023-05-07T15:31:30.813Z,22.03
2023-05-07T15:33:57.388Z,22.02
2023-05-07T15:36:23.736Z,21.94
2023-05-07T15:38:50.136Z,21.81
2023-05-07T15:41:16.443Z,21.88
2023-05-07T15:43:49.056Z,21.89
2023-05-07T15:46:24.369Z,21.84
2023-05-07T15:48:52.294Z,21.87
2023-05-07T15:51:19.220Z,21.83
2023-05-07T15:53:45.527Z,21.86
2023-05-07T15:56:12.019Z,21.92
2023-05-07T15:58:38.379Z,21.85
2023-05-07T16:01:05.267Z,21.84
2023-05-07T16:03:32.071Z,21.79
2023-05-07T16:06:00.665Z,21.71
2023-05-07T16:08:27.323Z,21.70
2023-05-07T16:10:53.903Z,21.58
2023-05-07T16:13:20.849Z,21.56
2023-05-07T16:15:48.129Z,21.54
2023-05-07T16:18:17.461Z,21.49
2023-05-07T16:20:43.824Z,21.45
2023-05-07T16:23:10.450Z,21.46
2023-05-07T16:25:36.749Z,21.40
2023-05-07T16:28:03.137Z,21.41
2023-05-07T16:30:29.470Z,21.35
2023-05-07T16:32:55.906Z,21.32
2023-05-07T16:35:22.354Z,21.35
2023-05-07T16:37:48.691Z,21.35
2023-05-07T16:40:15.154Z,21.30
2023-05-07T16:42:41.626Z,21.33
2023-05-07T16:45:08.769Z,21.32
2023-05-07T16:47:35.119Z,21.30
2023-05-07T16:50:01.740Z,21.18
2023-05-07T16:52:29.702Z,21.19
2023-05-07T16:54:58.302Z,21.20
2023-05-07T16:57:25.463Z,21.16
2023-05-07T16:59:52.722Z,21.12
2023-05-07T17:02:19.658Z,21.09
2023-05-07T17:04:45.948Z,21.05
2023-05-07T17:07:12.421Z,21.03
2023-05-07T17:09:38.878Z,20.97
2023-05-07T17:12:05.685Z,20.92
2023-05-07T17:14:32.067Z,20.87
2023-05-07T17:16:58.470Z,20.79
2023-05-07T17:19:24.800Z,20.77
2023-05-07T17:21:51.089Z,20.75
2023-05-07T17:24:17.528Z,20.68
2023-05-07T17:26:43.851Z,20.50
2023-05-07T17:29:10.249Z,20.28
2023-05-07T17:31:36.683Z,20.05
2023-05-07T17:34:03.163Z,19.93
2023-05-07T17:36:29.463Z,19.62
2023-05-07T17:38:55.841Z,19.21
2023-05-07T17:41:22.624Z,19.24
2023-05-07T17:43:48.962Z,19.13
2023-05-07T17:46:15.368Z,18.96
2023-05-07T17:48:41.755Z,18.82
2023-05-07T17:51:09.516Z,18.80
2023-05-07T17:53:36.062Z,18.75
2023-05-07T17:56:02.412Z,18.71
2023-05-07T17:58:28.799Z,18.54
2023-05-07T18:00:55.424Z,18.59
2023-05-07T18:03:24.266Z,18.53
2023-05-07T18:05:50.945Z,18.22
2023-05-07T18:08:17.239Z,18.19
2023-05-07T18:10:43.573Z,18.19
2023-05-07T18:13:10.047Z,18.03
2023-05-07T18:15:36.398Z,17.87
2023-05-07T18:18:02.857Z,17.91
2023-05-07T18:20:29.224Z,17.87
2023-05-07T18:22:55.699Z,17.83
2023-05-07T18:25:22.172Z,17.86
2023-05-07T18:27:48.469Z,17.97
2023-05-07T18:30:15.136Z,17.80
2023-05-07T18:32:41.620Z,17.62
2023-05-07T18:35:08.428Z,17.68
2023-05-07T18:37:34.748Z,17.53
2023-05-07T18:40:04.388Z,17.39
2023-05-07T18:42:31.627Z,17.43
2023-05-07T18:44:59.164Z,17.27
2023-05-07T18:47:25.504Z,17.28
2023-05-07T18:49:51.989Z,17.29
2023-05-07T18:52:20.993Z,17.39
2023-05-07T18:54:48.019Z,17.27
2023-05-07T18:57:14.369Z,17.27
2023-05-07T18:59:40.669Z,17.16
2023-05-07T19:02:06.989Z,17.10
2023-05-07T19:04:33.344Z,16.92
2023-05-07T19:06:59.664Z,16.98
2023-05-07T19:09:25.968Z,16.88
2023-05-07T19:11:52.427Z,16.80
2023-05-07T19:14:18.724Z,16.78
2023-05-07T19:16:45.167Z,16.87
2023-05-07T19:19:11.469Z,16.97
2023-05-07T19:21:37.849Z,16.87
2023-05-07T19:24:04.353Z,16.80
2023-05-07T19:26:30.748Z,16.61
2023-05-07T19:29:12.206Z,16.80
2023-05-07T19:31:42.610Z,16.69
2023-05-07T19:34:09.054Z,16.68
2023-05-07T19:36:35.366Z,16.66
2023-05-07T19:39:01.740Z,16.87
2023-05-07T19:41:28.637Z,16.64
2023-05-07T19:43:55.261Z,16.78
2023-05-07T19:46:21.960Z,16.78
2023-05-07T19:48:48.631Z,16.80
2023-05-07T19:51:14.971Z,16.78
2023-05-07T19:53:41.294Z,16.50
2023-05-07T19:56:09.569Z,16.57
2023-05-07T19:58:36.776Z,16.42
2023-05-07T20:01:04.332Z,16.50
2023-05-07T20:03:32.368Z,16.42
2023-05-07T20:05:59.274Z,16.62
2023-05-07T20:08:27.432Z,16.70
2023-05-07T20:10:53.807Z,16.70
2023-05-07T20:13:20.274Z,16.69
2023-05-07T20:15:46.619Z,16.61
2023-05-07T20:18:15.032Z,16.52
2023-05-07T20:20:41.758Z,16.34
2023-05-07T20:23:08.067Z,16.50
2023-05-07T20:25:34.403Z,16.42
2023-05-07T20:28:00.790Z,16.51
2023-05-07T20:30:27.669Z,16.48
2023-05-07T20:32:54.046Z,16.55
2023-05-07T20:35:20.432Z,16.50
2023-05-07T20:37:46.934Z,16.49
2023-05-07T20:40:13.775Z,16.48
2023-05-07T20:42:40.291Z,16.43
2023-05-07T20:45:07.779Z,16.21
2023-05-07T20:47:34.095Z,16.31
2023-05-07T20:50:00.737Z,16.44
2023-05-07T20:52:27.087Z,16.28
2023-05-07T20:54:53.605Z,16.29
2023-05-07T20:57:20.062Z,16.32
2023-05-07T20:59:46.424Z,16.45
2023-05-07T21:02:12.764Z,16.18
2023-05-07T21:04:39.179Z,16.21
2023-05-07T21:07:06.159Z,16.35
2023-05-07T21:09:32.738Z,16.18
2023-05-07T21:11:59.338Z,16.12
2023-05-07T21:14:25.692Z,16.08
2023-05-07T21:16:52.084Z,16.36
2023-05-07T21:19:18.549Z,16.16
2023-05-07T21:21:44.845Z,16.16
2023-05-07T21:24:11.435Z,16.35
2023-05-07T21:26:37.844Z,16.36
2023-05-07T21:29:04.586Z,16.24
2023-05-07T21:31:30.931Z,16.10
2023-05-07T21:33:57.429Z,15.96
2023-05-07T21:36:23.712Z,16.00
2023-05-07T21:38:50.197Z,16.04
2023-05-07T21:41:16.922Z,16.02
2023-05-07T21:43:43.228Z,15.88
2023-05-07T21:46:10.271Z,16.02
2023-05-07T21:48:36.768Z,16.04
2023-05-07T21:51:05.314Z,15.97
2023-05-07T21:53:31.917Z,16.00
2023-05-07T21:56:02.719Z,15.82
2023-05-07T21:58:30.700Z,15.66
2023-05-07T22:00:57.981Z,15.76
2023-05-07T22:03:24.468Z,15.87
2023-05-07T22:05:50.898Z,15.98
2023-05-07T22:08:17.226Z,16.07
2023-05-07T22:10:43.886Z,15.89
2023-05-07T22:13:10.273Z,15.82
2023-05-07T22:15:45.428Z,15.96
2023-05-07T22:18:19.974Z,15.87
2023-05-07T22:20:46.312Z,15.88
2023-05-07T22:23:12.628Z,15.87
2023-05-07T22:25:38.933Z,15.83
2023-05-07T22:28:05.801Z,15.76
2023-05-07T22:30:32.182Z,15.75
2023-05-07T22:32:58.518Z,15.85
2023-05-07T22:35:24.977Z,15.87
2023-05-07T22:37:51.293Z,15.75
2023-05-07T22:40:17.935Z,15.75
2023-05-07T22:42:44.329Z,15.83
2023-05-07T22:45:11.250Z,15.75
2023-05-07T22:47:37.654Z,15.66
2023-05-07T22:50:06.100Z,15.68
2023-05-07T22:52:33.845Z,15.69
2023-05-07T22:55:00.453Z,15.89
2023-05-07T22:57:26.820Z,15.67
2023-05-07T22:59:54.399Z,15.61
2023-05-07T23:02:20.867Z,15.70
2023-05-07T23:04:47.184Z,15.72
2023-05-07T23:07:13.500Z,15.40
2023-05-07T23:09:39.930Z,15.33
2023-05-07T23:12:06.317Z,15.26
2023-05-07T23:14:32.658Z,15.31
2023-05-07T23:16:58.994Z,15.34
2023-05-07T23:19:25.486Z,15.22
2023-05-07T23:21:52.145Z,15.27
2023-05-07T23:24:18.454Z,15.14
2023-05-07T23:26:44.757Z,15.31
2023-05-07T23:29:11.168Z,15.45
2023-05-07T23:31:37.793Z,15.27
2023-05-07T23:34:04.206Z,15.15
2023-05-07T23:36:32.482Z,15.04
2023-05-07T23:38:58.901Z,14.96
2023-05-07T23:41:25.656Z,14.96
2023-05-07T23:43:51.936Z,14.78
2023-05-07T23:46:18.440Z,14.91
2023-05-07T23:48:44.895Z,14.66
2023-05-07T23:51:11.413Z,14.68
2023-05-07T23:53:37.742Z,14.69
2023-05-07T23:56:04.284Z,14.75
2023-05-07T23:58:30.640Z,14.80
